Time;durP1;ratioP1;P1;durP2;ratioP2;P2;SDS_P1;SDS_P2;PMS_P1;PMS_P2;Temp;Humidity;BMP_temperature;BMP_pressure;BME280_temperature;BME280_humidity;BME280_pressure;Samples;Min_cycle;Max_cycle;Signal;HPM_P1;HPM_P2
2023/03/13 00:01:29;;;;;;;17.60;3.80;;;;;;;;;;6045073;23;20027;-80
2023/03/13 00:03:56;;;;;;;9.52;2.85;;;;;;;;;;6046157;23;20026;-81
2023/03/13 00:06:24;;;;;;;10.40;2.65;;;;;;;;;;6024615;23;20034;-81
2023/03/13 00:08:51;;;;;;;10.02;3.05;;;;;;;;;;6051013;23;20030;-82
2023/03/13 00:11:18;;;;;;;8.93;2.60;;;;;;;;;;6026060;23;20526;-81
2023/03/13 00:13:45;;;;;;;8.80;3.35;;;;;;;;;;6071550;23;20348;-80
2023/03/13 00:16:13;;;;;;;10.20;2.38;;;;;;;;;;6021917;23;20081;-80
2023/03/13 00:18:45;;;;;;;12.05;2.88;;;;;;;;;;6044191;23;20022;-81
2023/03/13 00:21:12;;;;;;;10.52;3.17;;;;;;;;;;6043778;23;20026;-79
2023/03/13 00:23:39;;;;;;;13.57;3.05;;;;;;;;;;6045159;23;20022;-79
2023/03/13 00:26:08;;;;;;;14.00;3.30;;;;;;;;;;6068628;23;20326;-79
2023/03/13 00:28:35;;;;;;;13.60;3.88;;;;;;;;;;6044315;23;20029;-79
2023/03/13 00:31:07;;;;;;;9.43;2.83;;;;;;;;;;6044047;23;20057;-79
2023/03/13 00:33:35;;;;;;;11.80;3.00;;;;;;;;;;6067875;23;20026;-79
2023/03/13 00:36:04;;;;;;;9.05;1.88;;;;;;;;;;6043933;23;20037;-80
2023/03/13 00:38:31;;;;;;;8.90;3.13;;;;;;;;;;6044852;23;20105;-80
2023/03/13 00:41:00;;;;;;;9.93;2.88;;;;;;;;;;6019711;23;20026;-79
2023/03/13 00:43:27;;;;;;;10.10;2.53;;;;;;;;;;6043770;23;20036;-79
2023/03/13 00:45:54;;;;;;;12.55;2.70;;;;;;;;;;6043715;23;20049;-81
2023/03/13 00:48:21;;;;;;;10.57;2.10;;;;;;;;;;6044660;23;20037;-80
2023/03/13 00:50:48;;;;;;;8.77;3.08;;;;;;;;;;6044711;23;20027;-79
2023/03/13 00:53:15;;;;;;;9.43;2.58;;;;;;;;;;6021386;23;20034;-80
2023/03/13 00:55:54;;;;;;;12.70;2.58;;;;;;;;;;6044702;23;20026;-80
2023/03/13 00:58:22;;;;;;;9.88;2.22;;;;;;;;;;6071265;23;20393;-81
2023/03/13 01:00:49;;;;;;;10.82;2.53;;;;;;;;;;6045652;23;20401;-81
2023/03/13 01:03:16;;;;;;;7.25;2.38;;;;;;;;;;6043878;23;20118;-81
2023/03/13 01:05:43;;;;;;;8.55;2.40;;;;;;;;;;6043998;23;20064;-83
2023/03/13 01:08:09;;;;;;;11.27;3.67;;;;;;;;;;6067857;23;20034;-80
2023/03/13 01:10:36;;;;;;;9.65;2.53;;;;;;;;;;6043207;23;20026;-78
2023/03/13 01:13:04;;;;;;;11.88;3.45;;;;;;;;;;6090879;23;20026;-79
2023/03/13 01:15:34;;;;;;;8.10;2.58;;;;;;;;;;6044080;23;20368;-79
2023/03/13 01:18:01;;;;;;;11.32;2.00;;;;;;;;;;5988060;23;1330147;-80
2023/03/13 01:20:29;;;;;;;14.25;2.80;;;;;;;;;;6068173;23;20076;-78
2023/03/13 01:22:56;;;;;;;10.43;2.70;;;;;;;;;;6046335;23;20023;-78
2023/03/13 01:25:22;;;;;;;9.18;2.60;;;;;;;;;;6022465;23;20029;-80
2023/03/13 01:27:49;;;;;;;8.52;2.78;;;;;;;;;;6046863;23;20030;-81
2023/03/13 01:30:16;;;;;;;9.38;2.53;;;;;;;;;;6047427;23;20405;-81
2023/03/13 01:32:43;;;;;;;8.98;2.25;;;;;;;;;;6047341;23;20026;-81
2023/03/13 01:35:09;;;;;;;6.90;2.45;;;;;;;;;;6071086;23;20345;-81
2023/03/13 01:37:36;;;;;;;8.98;1.80;;;;;;;;;;6069776;23;20558;-80
2023/03/13 01:40:03;;;;;;;9.52;2.60;;;;;;;;;;6046540;23;20022;-82
2023/03/13 01:42:30;;;;;;;8.63;2.70;;;;;;;;;;6047066;23;20029;-80
2023/03/13 01:44:57;;;;;;;11.18;2.53;;;;;;;;;;6046531;23;20483;-80
2023/03/13 01:47:23;;;;;;;5.85;2.30;;;;;;;;;;6023736;23;20028;-81
2023/03/13 01:49:50;;;;;;;8.35;2.55;;;;;;;;;;6047891;23;20029;-80
2023/03/13 01:52:26;;;;;;;9.80;2.45;;;;;;;;;;6053907;23;20023;-79
2023/03/13 01:55:02;;;;;;;10.60;2.40;;;;;;;;;;6059421;23;20070;-81
2023/03/13 01:57:33;;;;;;;9.50;2.63;;;;;;;;;;6050950;23;20032;-80
2023/03/13 02:00:11;;;;;;;5.93;1.85;;;;;;;;;;6050470;23;20026;-80
2023/03/13 02:02:39;;;;;;;8.48;3.17;;;;;;;;;;6055530;23;20053;-80
2023/03/13 02:05:06;;;;;;;8.32;2.15;;;;;;;;;;6052253;23;20487;-80
2023/03/13 02:07:40;;;;;;;5.95;2.30;;;;;;;;;;6046604;23;20030;-80
2023/03/13 02:10:10;;;;;;;9.80;2.60;;;;;;;;;;6023223;23;20356;-80
2023/03/13 02:12:38;;;;;;;6.88;1.45;;;;;;;;;;6046082;23;20026;-80
2023/03/13 02:15:14;;;;;;;6.78;1.75;;;;;;;;;;6045588;23;20023;-79
2023/03/13 02:17:41;;;;;;;8.10;1.80;;;;;;;;;;6044708;23;20022;-78
2023/03/13 02:20:09;;;;;;;9.35;1.75;;;;;;;;;;6044702;23;20100;-81
2023/03/13 02:22:44;;;;;;;9.57;2.05;;;;;;;;;;6046507;23;20476;-81
2023/03/13 02:25:17;;;;;;;1.75;1.13;;;;;;;;;;6071162;23;20019;-81
2023/03/13 02:27:44;;;;;;;3.90;1.30;;;;;;;;;;6073208;23;20097;-81
2023/03/13 02:30:12;;;;;;;5.28;1.60;;;;;;;;;;6025110;23;20022;-81
2023/03/13 02:32:39;;;;;;;10.18;2.05;;;;;;;;;;6048802;23;20473;-81
2023/03/13 02:35:11;;;;;;;5.72;1.38;;;;;;;;;;6049328;23;20374;-81
2023/03/13 02:37:39;;;;;;;7.90;1.83;;;;;;;;;;6049471;23;20036;-84
2023/03/13 02:40:10;;;;;;;6.57;1.52;;;;;;;;;;6025934;23;20022;-81
2023/03/13 02:42:41;;;;;;;6.82;1.95;;;;;;;;;;6049314;23;20342;-82
2023/03/13 02:45:09;;;;;;;8.73;2.17;;;;;;;;;;6047160;23;20018;-80
2023/03/13 02:47:36;;;;;;;7.93;1.88;;;;;;;;;;6047281;23;20353;-80
2023/03/13 02:50:06;;;;;;;4.80;1.50;;;;;;;;;;6047295;23;20110;-80
2023/03/13 02:52:37;;;;;;;7.38;1.80;;;;;;;;;;6070221;23;20121;-81
2023/03/13 02:55:07;;;;;;;6.30;2.10;;;;;;;;;;6047301;23;20029;-79
2023/03/13 02:57:34;;;;;;;5.80;1.50;;;;;;;;;;6048240;23;20388;-79
2023/03/13 03:00:05;;;;;;;5.40;1.73;;;;;;;;;;6047267;23;20029;-81
2023/03/13 03:02:32;;;;;;;6.47;1.60;;;;;;;;;;6050127;23;20034;-80
2023/03/13 03:04:58;;;;;;;8.60;1.92;;;;;;;;;;6047976;23;20026;-81
2023/03/13 03:07:25;;;;;;;9.00;1.70;;;;;;;;;;6047608;23;20767;-80
2023/03/13 03:09:52;;;;;;;4.88;1.45;;;;;;;;;;6046949;23;20042;-80
2023/03/13 03:12:19;;;;;;;6.53;1.80;;;;;;;;;;6024397;23;20033;-79
2023/03/13 03:14:46;;;;;;;6.00;1.35;;;;;;;;;;6023371;23;20026;-80
2023/03/13 03:17:12;;;;;;;4.72;1.15;;;;;;;;;;6046758;23;20022;-80
2023/03/13 03:19:39;;;;;;;5.95;1.60;;;;;;;;;;6023643;23;20345;-81
2023/03/13 03:22:06;;;;;;;4.85;1.27;;;;;;;;;;6046369;23;20103;-80
2023/03/13 03:24:33;;;;;;;11.10;2.22;;;;;;;;;;6046823;23;20045;-80
2023/03/13 03:27:00;;;;;;;5.10;1.10;;;;;;;;;;6046593;23;20105;-80
2023/03/13 03:29:26;;;;;;;4.22;1.15;;;;;;;;;;6021998;23;20023;-80
2023/03/13 03:31:53;;;;;;;4.53;1.15;;;;;;;;;;6044987;23;20031;-80
2023/03/13 03:34:20;;;;;;;4.85;1.40;;;;;;;;;;6046874;23;20026;-80
2023/03/13 03:36:47;;;;;;;6.32;1.83;;;;;;;;;;6046717;23;20029;-81
2023/03/13 03:39:14;;;;;;;6.30;1.52;;;;;;;;;;6047171;23;20026;-80
2023/03/13 03:41:41;;;;;;;4.43;0.85;;;;;;;;;;6022567;23;20022;-79
2023/03/13 03:44:07;;;;;;;6.22;0.90;;;;;;;;;;6093910;23;20097;-80
2023/03/13 03:46:34;;;;;;;6.28;1.92;;;;;;;;;;6046217;23;20033;-79
2023/03/13 03:49:01;;;;;;;5.05;1.45;;;;;;;;;;6073605;23;20503;-79
2023/03/13 03:51:28;;;;;;;5.68;1.17;;;;;;;;;;6050563;23;20382;-79
2023/03/13 03:53:54;;;;;;;4.82;1.27;;;;;;;;;;6048565;23;20031;-80
2023/03/13 03:56:21;;;;;;;5.85;1.45;;;;;;;;;;6047100;23;20054;-80
2023/03/13 03:58:48;;;;;;;2.97;0.90;;;;;;;;;;6046502;23;20763;-80
2023/03/13 04:01:14;;;;;;;3.00;0.85;;;;;;;;;;6046196;23;20030;-80
2023/03/13 04:03:41;;;;;;;4.43;1.10;;;;;;;;;;6046945;23;20029;-80
2023/03/13 04:06:08;;;;;;;3.22;0.90;;;;;;;;;;6046536;23;20101;-81
2023/03/13 04:08:35;;;;;;;4.18;1.13;;;;;;;;;;6046268;23;20460;-80
2023/03/13 04:11:02;;;;;;;5.78;1.42;;;;;;;;;;6022639;23;20184;-80
2023/03/13 04:13:29;;;;;;;2.33;0.80;;;;;;;;;;6046712;23;20026;-80
2023/03/13 04:15:56;;;;;;;2.35;0.85;;;;;;;;;;6046277;23;20025;-80
2023/03/13 04:18:22;;;;;;;2.78;0.95;;;;;;;;;;6046111;23;20101;-80
2023/03/13 04:20:49;;;;;;;1.48;0.88;;;;;;;;;;6045976;23;20048;-80
2023/03/13 04:23:16;;;;;;;3.33;1.10;;;;;;;;;;6022468;23;20023;-80
2023/03/13 04:25:42;;;;;;;5.28;1.75;;;;;;;;;;6045819;23;20105;-79
2023/03/13 04:28:09;;;;;;;4.75;1.08;;;;;;;;;;6069626;23;20022;-79
2023/03/13 04:30:36;;;;;;;4.72;1.17;;;;;;;;;;6092827;23;20105;-79
2023/03/13 04:33:03;;;;;;;2.65;0.70;;;;;;;;;;6045564;23;20669;-78
2023/03/13 04:35:30;;;;;;;2.63;0.70;;;;;;;;;;6021505;23;20018;-79
2023/03/13 04:37:59;;;;;;;4.82;1.10;;;;;;;;;;6045163;23;20022;-78
2023/03/13 04:40:26;;;;;;;1.58;0.70;;;;;;;;;;6044736;23;20026;-78
2023/03/13 04:42:53;;;;;;;1.02;0.60;;;;;;;;;;6068479;23;20018;-79
2023/03/13 04:45:20;;;;;;;1.40;0.40;;;;;;;;;;6022001;23;20082;-79
2023/03/13 04:47:46;;;;;;;1.95;0.30;;;;;;;;;;6022823;23;20053;-80
2023/03/13 04:50:13;;;;;;;2.33;0.80;;;;;;;;;;6044617;23;20041;-81
2023/03/13 04:52:40;;;;;;;3.03;0.40;;;;;;;;;;6045228;23;20029;-79
2023/03/13 04:55:07;;;;;;;0.85;0.47;;;;;;;;;;6045981;23;20019;-80
2023/03/13 04:57:34;;;;;;;1.25;0.60;;;;;;;;;;6045497;23;20022;-79
2023/03/13 05:00:01;;;;;;;1.08;0.52;;;;;;;;;;6021423;23;20023;-79
2023/03/13 05:02:27;;;;;;;3.13;0.40;;;;;;;;;;6068018;23;20349;-79
2023/03/13 05:04:54;;;;;;;3.20;1.60;;;;;;;;;;6044556;23;20031;-79
2023/03/13 05:07:21;;;;;;;1.40;0.60;;;;;;;;;;6021804;23;20023;-79
2023/03/13 05:09:48;;;;;;;0.70;0.47;;;;;;;;;;6021019;23;20069;-80
2023/03/13 05:12:15;;;;;;;0.75;0.50;;;;;;;;;;6044595;23;20029;-79
2023/03/13 05:14:41;;;;;;;0.55;0.40;;;;;;;;;;6043980;23;20029;-79
2023/03/13 05:17:09;;;;;;;0.60;0.55;;;;;;;;;;6044222;23;20057;-79
2023/03/13 05:19:36;;;;;;;0.70;0.47;;;;;;;;;;6067986;23;20026;-79
2023/03/13 05:22:03;;;;;;;1.13;0.50;;;;;;;;;;6067753;23;20729;-78
2023/03/13 05:24:30;;;;;;;0.80;0.50;;;;;;;;;;6044076;23;20029;-78
2023/03/13 05:26:56;;;;;;;0.57;0.52;;;;;;;;;;6043860;23;20019;-79
2023/03/13 05:29:23;;;;;;;2.05;0.50;;;;;;;;;;6021009;23;20022;-81
2023/03/13 05:31:50;;;;;;;1.15;0.40;;;;;;;;;;6045074;23;20018;-76
2023/03/13 05:34:17;;;;;;;2.05;0.70;;;;;;;;;;6044543;23;20025;-78
2023/03/13 05:36:43;;;;;;;1.20;0.50;;;;;;;;;;6046342;23;20027;-80
2023/03/13 05:39:10;;;;;;;1.65;0.70;;;;;;;;;;6021586;23;20089;-79
2023/03/13 05:41:37;;;;;;;0.85;0.50;;;;;;;;;;6043989;23;20023;-79
2023/03/13 05:44:04;;;;;;;2.08;0.32;;;;;;;;;;6044185;23;20105;-76
2023/03/13 05:46:31;;;;;;;0.75;0.52;;;;;;;;;;6043576;23;20044;-77
2023/03/13 05:48:58;;;;;;;1.30;0.55;;;;;;;;;;6020565;23;20023;-77
2023/03/13 05:51:25;;;;;;;1.05;0.45;;;;;;;;;;6066685;23;20018;-75
2023/03/13 05:53:52;;;;;;;1.45;0.55;;;;;;;;;;6043702;23;20027;-76
2023/03/13 05:56:18;;;;;;;0.95;0.50;;;;;;;;;;6043859;23;20022;-77
2023/03/13 05:58:45;;;;;;;1.38;0.47;;;;;;;;;;6067337;23;20030;-77
2023/03/13 06:01:13;;;;;;;1.77;0.63;;;;;;;;;;6043554;23;20027;-76
2023/03/13 06:03:39;;;;;;;0.88;0.40;;;;;;;;;;6043392;23;20026;-77
2023/03/13 06:06:08;;;;;;;1.10;0.30;;;;;;;;;;6043993;23;20018;-77
2023/03/13 06:08:34;;;;;;;0.55;0.28;;;;;;;;;;6043761;23;20068;-77
2023/03/13 06:11:02;;;;;;;0.55;0.20;;;;;;;;;;6020501;23;20022;-77
2023/03/13 06:13:29;;;;;;;1.35;0.50;;;;;;;;;;6044581;23;20077;-78
2023/03/13 06:15:56;;;;;;;1.85;0.65;;;;;;;;;;6044968;23;20101;-78
2023/03/13 06:18:24;;;;;;;0.88;0.30;;;;;;;;;;6048999;23;20061;-77
2023/03/13 06:21:01;;;;;;;1.83;0.70;;;;;;;;;;6048015;23;20029;-76
2023/03/13 06:23:29;;;;;;;1.38;0.45;;;;;;;;;;6046118;23;20026;-78
2023/03/13 06:25:55;;;;;;;1.45;0.30;;;;;;;;;;6046275;23;20357;-77
2023/03/13 06:28:22;;;;;;;1.15;0.30;;;;;;;;;;6045845;23;20026;-78
2023/03/13 06:30:49;;;;;;;2.08;0.60;;;;;;;;;;6044855;23;20101;-78
2023/03/13 06:33:16;;;;;;;0.55;0.30;;;;;;;;;;6021856;23;20049;-77
2023/03/13 06:35:43;;;;;;;1.50;0.40;;;;;;;;;;6044244;23;20025;-78
2023/03/13 06:38:25;;;;;;;1.15;0.30;;;;;;;;;;6061943;23;20026;-83
2023/03/13 06:40:52;;;;;;;0.73;0.40;;;;;;;;;;6049635;23;20028;-79
2023/03/13 06:43:19;;;;;;;1.20;0.55;;;;;;;;;;6048594;23;20054;-80
2023/03/13 06:45:46;;;;;;;1.08;0.20;;;;;;;;;;6048333;23;20101;-78
2023/03/13 06:48:13;;;;;;;1.35;0.50;;;;;;;;;;6024691;23;20508;-74
2023/03/13 06:50:40;;;;;;;0.57;0.43;;;;;;;;;;6044603;23;20022;-76
2023/03/13 06:53:16;;;;;;;5.25;0.70;;;;;;;;;;6046595;23;20054;-79
2023/03/13 06:55:43;;;;;;;0.40;0.40;;;;;;;;;;6047688;23;20098;-78
2023/03/13 06:58:10;;;;;;;1.17;0.28;;;;;;;;;;6045006;23;20032;-78
2023/03/13 07:00:54;;;;;;;1.05;0.50;;;;;;;;;;6031812;23;20637;-80
2023/03/13 07:03:21;;;;;;;1.38;0.60;;;;;;;;;;6045790;23;20114;-81
2023/03/13 07:05:48;;;;;;;0.60;0.32;;;;;;;;;;6022818;23;20125;-80
2023/03/13 07:08:15;;;;;;;0.20;0.20;;;;;;;;;;6046831;23;20026;-79
2023/03/13 07:10:42;;;;;;;0.52;0.38;;;;;;;;;;6070366;23;20029;-80
2023/03/13 07:13:09;;;;;;;0.73;0.38;;;;;;;;;;6046651;23;20101;-79
2023/03/13 07:15:35;;;;;;;0.40;0.28;;;;;;;;;;6047465;23;20021;-81
2023/03/13 07:18:02;;;;;;;0.40;0.30;;;;;;;;;;6062698;23;20026;-79
2023/03/13 07:20:29;;;;;;;0.88;0.40;;;;;;;;;;6088739;23;20050;-77
2023/03/13 07:22:56;;;;;;;0.90;0.38;;;;;;;;;;6029677;23;20022;-79
2023/03/13 07:25:23;;;;;;;2.17;0.95;;;;;;;;;;6080131;23;20089;-79
2023/03/13 07:27:52;;;;;;;0.85;0.50;;;;;;;;;;6045175;23;20077;-77
2023/03/13 07:30:19;;;;;;;1.25;0.70;;;;;;;;;;6043715;23;20034;-76
2023/03/13 07:32:45;;;;;;;2.10;0.70;;;;;;;;;;6042808;23;20022;-76
2023/03/13 07:35:12;;;;;;;1.83;0.45;;;;;;;;;;6044192;23;20549;-77
2023/03/13 07:37:39;;;;;;;0.70;0.40;;;;;;;;;;6044512;23;20029;-75
2023/03/13 07:40:11;;;;;;;1.27;0.40;;;;;;;;;;6043840;23;20069;-77
2023/03/13 07:42:41;;;;;;;1.10;0.47;;;;;;;;;;6068167;23;20023;-74
2023/03/13 07:45:08;;;;;;;0.50;0.50;;;;;;;;;;6045148;23;20026;-78
2023/03/13 07:47:36;;;;;;;2.15;0.60;;;;;;;;;;6045035;23;20535;-81
2023/03/13 07:50:03;;;;;;;1.25;0.40;;;;;;;;;;6024204;23;20029;-72
2023/03/13 07:52:30;;;;;;;0.32;0.30;;;;;;;;;;6044662;23;20027;-74
2023/03/13 07:54:57;;;;;;;2.05;0.40;;;;;;;;;;6044928;23;20037;-76
2023/03/13 07:57:24;;;;;;;1.25;0.50;;;;;;;;;;6044337;23;20341;-75
2023/03/13 07:59:52;;;;;;;1.02;0.50;;;;;;;;;;6046019;23;20022;-85
2023/03/13 08:02:19;;;;;;;1.08;0.50;;;;;;;;;;6045822;23;20071;-78
2023/03/13 08:04:45;;;;;;;1.63;0.35;;;;;;;;;;6023427;23;20498;-78
2023/03/13 08:07:12;;;;;;;1.95;0.60;;;;;;;;;;6046925;23;20023;-78
2023/03/13 08:09:40;;;;;;;2.72;0.50;;;;;;;;;;6045117;23;20026;-75
2023/03/13 08:12:07;;;;;;;0.85;0.50;;;;;;;;;;6045156;23;20023;-78
2023/03/13 08:14:34;;;;;;;0.57;0.57;;;;;;;;;;6041367;23;20026;-79
2023/03/13 08:17:01;;;;;;;0.98;0.40;;;;;;;;;;6042852;23;20019;-78
2023/03/13 08:19:28;;;;;;;0.35;0.30;;;;;;;;;;6068033;23;20026;-77
2023/03/13 08:21:55;;;;;;;0.40;0.40;;;;;;;;;;6071202;23;20034;-78
2023/03/13 08:24:22;;;;;;;0.30;0.22;;;;;;;;;;6044754;23;20029;-75
2023/03/13 08:26:48;;;;;;;1.92;0.70;;;;;;;;;;6019306;23;20144;-75
2023/03/13 08:29:15;;;;;;;0.75;0.60;;;;;;;;;;6050404;23;20049;-76
2023/03/13 08:31:51;;;;;;;1.02;0.60;;;;;;;;;;6034203;23;20019;-77
2023/03/13 08:34:18;;;;;;;0.90;0.80;;;;;;;;;;6046270;23;20037;-78
2023/03/13 08:36:45;;;;;;;0.95;0.60;;;;;;;;;;6045077;23;20098;-77
2023/03/13 08:39:14;;;;;;;3.10;0.40;;;;;;;;;;6044581;23;20026;-78
2023/03/13 08:41:41;;;;;;;2.30;0.73;;;;;;;;;;6044176;23;20023;-77
2023/03/13 08:44:19;;;;;;;0.75;0.40;;;;;;;;;;6045241;23;20026;-76
2023/03/13 08:46:47;;;;;;;0.77;0.70;;;;;;;;;;6044350;23;20412;-77
2023/03/13 08:49:16;;;;;;;0.68;0.63;;;;;;;;;;6020564;23;20364;-77
2023/03/13 08:51:43;;;;;;;1.92;0.65;;;;;;;;;;6043963;23;20612;-76
2023/03/13 08:54:10;;;;;;;1.45;0.50;;;;;;;;;;6044068;23;20406;-77
2023/03/13 08:56:37;;;;;;;2.35;0.52;;;;;;;;;;6043761;23;20029;-77
2023/03/13 08:59:04;;;;;;;1.38;0.60;;;;;;;;;;6042841;23;20129;-76
2023/03/13 09:01:33;;;;;;;1.05;0.40;;;;;;;;;;6043327;23;20483;-77
2023/03/13 09:04:00;;;;;;;0.52;0.50;;;;;;;;;;6045157;23;20023;-77
2023/03/13 09:06:30;;;;;;;1.05;0.30;;;;;;;;;;6069832;23;20461;-76
2023/03/13 09:08:57;;;;;;;3.33;0.70;;;;;;;;;;6044051;23;20060;-76
2023/03/13 09:11:24;;;;;;;3.63;0.60;;;;;;;;;;6019469;23;20033;-77
2023/03/13 09:13:51;;;;;;;2.85;0.70;;;;;;;;;;6043296;23;20029;-78
2023/03/13 09:16:20;;;;;;;0.55;0.50;;;;;;;;;;6044895;23;20026;-78
2023/03/13 09:18:48;;;;;;;0.85;0.52;;;;;;;;;;6045751;23;20077;-78
2023/03/13 09:21:17;;;;;;;2.50;0.63;;;;;;;;;;6042521;23;20032;-77
2023/03/13 09:23:43;;;;;;;1.50;0.75;;;;;;;;;;6042690;23;20032;-77
2023/03/13 09:26:11;;;;;;;2.00;0.63;;;;;;;;;;6019221;23;20465;-77
2023/03/13 09:28:37;;;;;;;0.70;0.52;;;;;;;;;;6042930;23;20029;-81
2023/03/13 09:31:06;;;;;;;0.60;0.50;;;;;;;;;;6046744;23;20054;-77
2023/03/13 09:33:33;;;;;;;1.13;0.73;;;;;;;;;;6052462;23;20081;-77
2023/03/13 09:36:00;;;;;;;1.17;0.63;;;;;;;;;;6046633;23;20018;-78
2023/03/13 09:38:27;;;;;;;2.03;0.70;;;;;;;;;;6069583;23;20026;-77
2023/03/13 09:40:54;;;;;;;0.77;0.60;;;;;;;;;;6044864;23;20029;-77
2023/03/13 09:44:08;;;;;;;0.98;0.50;;;;;;;;;;6048969;23;20049;-77
2023/03/13 09:46:37;;;;;;;0.60;0.60;;;;;;;;;;6069528;23;20097;-78
2023/03/13 09:49:15;;;;;;;1.90;0.60;;;;;;;;;;6065893;23;20049;-79
2023/03/13 09:51:46;;;;;;;1.05;0.50;;;;;;;;;;6070463;23;20477;-78
2023/03/13 09:54:24;;;;;;;1.08;0.50;;;;;;;;;;6048140;23;20033;-78
2023/03/13 09:57:09;;;;;;;2.83;0.65;;;;;;;;;;6051160;23;20019;-78
2023/03/13 09:59:42;;;;;;;0.95;0.50;;;;;;;;;;6072032;23;20029;-78
2023/03/13 10:02:24;;;;;;;1.02;0.70;;;;;;;;;;6067709;23;20034;-77
2023/03/13 10:04:55;;;;;;;1.42;0.65;;;;;;;;;;6070197;23;20074;-77
2023/03/13 10:07:22;;;;;;;3.40;0.55;;;;;;;;;;6046192;23;20018;-78
2023/03/13 10:09:49;;;;;;;1.52;0.60;;;;;;;;;;6046278;23;20030;-77
2023/03/13 10:12:24;;;;;;;1.52;1.00;;;;;;;;;;6045156;23;20046;-78
2023/03/13 10:15:20;;;;;;;3.15;0.65;;;;;;;;;;6043553;23;20082;-78
2023/03/13 10:17:47;;;;;;;2.55;0.82;;;;;;;;;;6056134;23;20029;-77
2023/03/13 10:20:28;;;;;;;0.98;0.70;;;;;;;;;;6042966;23;20026;-76
2023/03/13 10:23:14;;;;;;;1.42;0.60;;;;;;;;;;6064253;23;20030;-76
2023/03/13 10:25:41;;;;;;;3.78;0.90;;;;;;;;;;6068147;23;20041;-77
2023/03/13 10:28:13;;;;;;;2.78;1.52;;;;;;;;;;6040892;23;20050;-77
2023/03/13 10:30:53;;;;;;;3.50;0.90;;;;;;;;;;6043935;23;20029;-76
2023/03/13 10:33:27;;;;;;;1.73;0.88;;;;;;;;;;6044411;23;20027;-76
2023/03/13 10:36:11;;;;;;;3.70;1.08;;;;;;;;;;6043558;23;20061;-77
2023/03/13 10:38:50;;;;;;;3.67;0.93;;;;;;;;;;6044775;23;20023;-77
2023/03/13 10:41:22;;;;;;;2.17;0.80;;;;;;;;;;6043907;23;20026;-77
2023/03/13 10:44:13;;;;;;;2.47;1.00;;;;;;;;;;6067536;23;20125;-76
2023/03/13 10:46:41;;;;;;;1.27;0.70;;;;;;;;;;6071426;23;20089;-77
2023/03/13 10:49:19;;;;;;;1.40;0.80;;;;;;;;;;6046900;23;20033;-77
2023/03/13 10:51:54;;;;;;;1.60;0.80;;;;;;;;;;6051011;23;20026;-76
2023/03/13 10:54:26;;;;;;;0.85;0.75;;;;;;;;;;6050351;23;20115;-77
2023/03/13 10:57:25;;;;;;;2.25;1.23;;;;;;;;;;6047902;23;20077;-77
2023/03/13 10:59:52;;;;;;;1.88;0.95;;;;;;;;;;6071856;23;20473;-78
2023/03/13 11:02:22;;;;;;;2.97;0.70;;;;;;;;;;6045555;23;20109;-76
2023/03/13 11:04:55;;;;;;;2.15;1.00;;;;;;;;;;6069025;23;20038;-77
2023/03/13 11:07:26;;;;;;;0.80;0.70;;;;;;;;;;6048112;23;20020;-78
2023/03/13 11:10:28;;;;;;;0.88;0.70;;;;;;;;;;6069381;23;20026;-78
2023/03/13 11:12:56;;;;;;;1.33;1.00;;;;;;;;;;6066441;23;20465;-77
2023/03/13 11:15:32;;;;;;;2.72;1.20;;;;;;;;;;6046225;23;20124;-77
2023/03/13 11:18:05;;;;;;;1.08;0.80;;;;;;;;;;6045944;23;20025;-76
2023/03/13 11:20:37;;;;;;;2.63;0.98;;;;;;;;;;6067335;23;20355;-76
2023/03/13 11:23:17;;;;;;;2.63;1.00;;;;;;;;;;6045399;23;20115;-76
2023/03/13 11:26:08;;;;;;;1.63;0.90;;;;;;;;;;6070030;23;20029;-78
2023/03/13 11:28:44;;;;;;;5.38;1.20;;;;;;;;;;6073035;23;20030;-78
2023/03/13 11:31:41;;;;;;;2.55;1.00;;;;;;;;;;6092746;23;20038;-78
2023/03/13 11:34:24;;;;;;;2.67;1.00;;;;;;;;;;6049867;23;20438;-79
2023/03/13 11:36:55;;;;;;;3.05;1.42;;;;;;;;;;6070990;23;20060;-79
2023/03/13 11:39:43;;;;;;;0.82;0.73;;;;;;;;;;6070603;23;20027;-79
2023/03/13 11:42:42;;;;;;;1.90;0.90;;;;;;;;;;6070224;23;20105;-79
2023/03/13 11:45:31;;;;;;;2.05;0.90;;;;;;;;;;6070502;23;20022;-78
2023/03/13 11:48:07;;;;;;;3.55;1.48;;;;;;;;;;6070499;23;20034;-79
2023/03/13 11:50:36;;;;;;;2.80;1.33;;;;;;;;;;6070573;23;20026;-84
2023/03/13 11:53:27;;;;;;;2.13;1.20;;;;;;;;;;6068432;23;20022;-79
2023/03/13 11:56:17;;;;;;;2.10;0.80;;;;;;;;;;6045904;23;20026;-78
2023/03/13 11:58:49;;;;;;;3.83;1.20;;;;;;;;;;6046004;23;20117;-78
2023/03/13 12:01:17;;;;;;;6.88;0.90;;;;;;;;;;6094884;23;20472;-78
2023/03/13 12:04:05;;;;;;;2.22;1.23;;;;;;;;;;6044296;23;20330;-78
2023/03/13 12:06:34;;;;;;;1.40;0.90;;;;;;;;;;6045626;23;20023;-79
2023/03/13 12:09:09;;;;;;;1.88;0.88;;;;;;;;;;6044035;23;20081;-78
2023/03/13 12:11:42;;;;;;;2.72;0.80;;;;;;;;;;6070427;23;20113;-80
2023/03/13 12:14:15;;;;;;;1.55;1.00;;;;;;;;;;6067219;23;20111;-80
2023/03/13 12:16:46;;;;;;;2.92;0.73;;;;;;;;;;6046998;23;20026;-79
2023/03/13 12:19:16;;;;;;;1.75;0.85;;;;;;;;;;6045441;23;20018;-79
2023/03/13 12:21:52;;;;;;;1.23;0.88;;;;;;;;;;6045359;23;20053;-80
2023/03/13 12:24:39;;;;;;;1.65;0.90;;;;;;;;;;6046354;23;20031;-80
2023/03/13 12:27:32;;;;;;;0.75;0.75;;;;;;;;;;6045878;23;20018;-79
2023/03/13 12:29:59;;;;;;;2.53;1.08;;;;;;;;;;6092607;23;20239;-80
2023/03/13 12:32:31;;;;;;;1.83;0.80;;;;;;;;;;6068479;23;20365;-80
2023/03/13 12:35:27;;;;;;;4.63;0.88;;;;;;;;;;6069207;23;20621;-79
2023/03/13 12:38:33;;;;;;;0.90;0.60;;;;;;;;;;6048186;23;20081;-79
2023/03/13 12:41:23;;;;;;;2.70;1.02;;;;;;;;;;6065011;23;20037;-79
2023/03/13 12:43:52;;;;;;;1.58;0.70;;;;;;;;;;6092926;23;20030;-79
2023/03/13 12:46:40;;;;;;;1.27;0.60;;;;;;;;;;6050526;23;20019;-79
2023/03/13 12:49:31;;;;;;;2.47;0.88;;;;;;;;;;6068338;23;20026;-79
2023/03/13 12:52:21;;;;;;;0.85;0.60;;;;;;;;;;6068445;23;20468;-79
2023/03/13 12:55:03;;;;;;;1.67;0.82;;;;;;;;;;6069436;23;20025;-79
2023/03/13 12:57:54;;;;;;;2.20;0.60;;;;;;;;;;6071455;23;20027;-78
2023/03/13 13:00:22;;;;;;;0.68;0.55;;;;;;;;;;6071759;23;20465;-79
2023/03/13 13:03:09;;;;;;;0.93;0.50;;;;;;;;;;6049858;23;20066;-79
2023/03/13 13:05:36;;;;;;;1.48;0.65;;;;;;;;;;6050640;23;20022;-79
2023/03/13 13:08:03;;;;;;;2.08;0.73;;;;;;;;;;6027103;23;20457;-79
2023/03/13 13:10:30;;;;;;;2.80;0.60;;;;;;;;;;6048856;23;20101;-79
2023/03/13 13:13:12;;;;;;;1.42;0.60;;;;;;;;;;6074324;23;20075;-81
2023/03/13 13:16:19;;;;;;;1.02;0.45;;;;;;;;;;6075044;23;20057;-82
2023/03/13 13:18:46;;;;;;;5.43;1.02;;;;;;;;;;5959893;24;20044;-82
2023/03/13 13:21:16;;;;;;;4.45;0.73;;;;;;;;;;5959582;24;20024;-82
2023/03/13 13:23:48;;;;;;;0.82;0.40;;;;;;;;;;5959802;24;20024;-82
2023/03/13 13:26:28;;;;;;;1.02;0.52;;;;;;;;;;5987804;24;20083;-80
2023/03/13 13:28:59;;;;;;;1.70;0.60;;;;;;;;;;5989601;24;20046;-80
2023/03/13 13:31:49;;;;;;;1.77;0.68;;;;;;;;;;6083255;23;20078;-80
2023/03/13 13:34:31;;;;;;;1.67;0.65;;;;;;;;;;6083660;23;20022;-80
2023/03/13 13:37:11;;;;;;;1.63;0.50;;;;;;;;;;6073705;23;20088;-81
2023/03/13 13:39:46;;;;;;;2.00;0.80;;;;;;;;;;6052766;23;20046;-81
2023/03/13 13:42:31;;;;;;;2.90;0.60;;;;;;;;;;6052169;23;20102;-82
2023/03/13 13:45:13;;;;;;;1.85;0.77;;;;;;;;;;6074169;23;20019;-81
2023/03/13 13:47:44;;;;;;;3.00;0.60;;;;;;;;;;6073715;23;20077;-81
2023/03/13 13:50:19;;;;;;;3.25;0.52;;;;;;;;;;6049824;23;20104;-82
2023/03/13 13:52:47;;;;;;;1.65;0.50;;;;;;;;;;6050027;23;20045;-81
2023/03/13 13:55:39;;;;;;;2.00;0.45;;;;;;;;;;6050032;23;20081;-82
2023/03/13 13:58:28;;;;;;;1.27;0.57;;;;;;;;;;6099595;23;20054;-81
2023/03/13 14:01:00;;;;;;;0.70;0.65;;;;;;;;;;6052630;23;20050;-81
2023/03/13 14:03:29;;;;;;;1.80;0.47;;;;;;;;;;6047591;23;20029;-78
2023/03/13 14:06:02;;;;;;;1.25;0.70;;;;;;;;;;6044269;23;20048;-76
2023/03/13 14:08:30;;;;;;;0.57;0.50;;;;;;;;;;6043590;23;20031;-75
2023/03/13 14:11:33;;;;;;;2.30;0.60;;;;;;;;;;6043507;23;20060;-78
2023/03/13 14:14:17;;;;;;;1.00;0.53;;;;;;;;;;6032336;23;20022;-75
2023/03/13 14:16:45;;;;;;;1.55;0.40;;;;;;;;;;6043090;23;20026;-76
2023/03/13 14:19:40;;;;;;;2.05;0.55;;;;;;;;;;6043781;23;20102;-76
2023/03/13 14:22:09;;;;;;;3.75;0.65;;;;;;;;;;6088009;23;20519;-76
2023/03/13 14:24:36;;;;;;;2.95;0.73;;;;;;;;;;6045976;23;20023;-76
2023/03/13 14:27:17;;;;;;;0.85;0.40;;;;;;;;;;6044365;23;20027;-74
2023/03/13 14:30:05;;;;;;;1.38;0.50;;;;;;;;;;6046208;23;20129;-74
2023/03/13 14:32:32;;;;;;;1.23;0.77;;;;;;;;;;6045332;23;20082;-74
2023/03/13 14:34:59;;;;;;;2.88;0.63;;;;;;;;;;6045062;23;20520;-74
2023/03/13 14:37:34;;;;;;;1.20;0.60;;;;;;;;;;6045227;23;20023;-74
2023/03/13 14:40:08;;;;;;;3.08;0.60;;;;;;;;;;6117686;23;20050;-73
2023/03/13 14:42:41;;;;;;;1.73;1.25;;;;;;;;;;6077593;23;20022;-73
2023/03/13 14:45:15;;;;;;;2.50;0.55;;;;;;;;;;6075134;23;20022;-74
2023/03/13 14:47:42;;;;;;;0.93;0.50;;;;;;;;;;6070130;23;20029;-73
2023/03/13 14:50:10;;;;;;;0.77;0.50;;;;;;;;;;6069579;23;20046;-73
2023/03/13 14:52:42;;;;;;;2.05;0.80;;;;;;;;;;6069105;23;20022;-74
2023/03/13 14:55:21;;;;;;;1.67;0.60;;;;;;;;;;6070157;23;20056;-74
2023/03/13 14:58:17;;;;;;;4.40;0.70;;;;;;;;;;6091312;23;20322;-75
2023/03/13 15:00:45;;;;;;;6.43;0.70;;;;;;;;;;6051618;23;20030;-75
2023/03/13 15:03:21;;;;;;;3.33;0.70;;;;;;;;;;6067617;23;20014;-76
2023/03/13 15:06:00;;;;;;;2.60;0.55;;;;;;;;;;6091045;23;20022;-79
2023/03/13 15:08:27;;;;;;;1.65;0.60;;;;;;;;;;6066156;23;20052;-77